sensor_id;sensor_type;location;lat;lon;timestamp;P1;durP1;ratioP1;P2;durP2;ratioP2
19810;SDS011;10065;49.632;8.346;2023-12-29T00:04:49;3.27;;;1.63;;
19810;SDS011;10065;49.632;8.346;2023-12-29T00:18:53;5.23;;;1.87;;
19810;SDS011;10065;49.632;8.346;2023-12-29T00:44:16;3.17;;;1.57;;
19810;SDS011;10065;49.632;8.346;2023-12-29T00:54:49;2.30;;;1.57;;
19810;SDS011;10065;49.632;8.346;2023-12-29T00:58:48;4.87;;;1.83;;
19810;SDS011;10065;49.632;8.346;2023-12-29T01:04:17;5.50;;;1.60;;
19810;SDS011;10065;49.632;8.346;2023-12-29T01:08:04;3.10;;;1.57;;
19810;SDS011;10065;49.632;8.346;2023-12-29T04:12:55;3.00;;;1.70;;
19810;SDS011;10065;49.632;8.346;2023-12-29T04:15:26;7.20;;;2.03;;
19810;SDS011;10065;49.632;8.346;2023-12-29T04:26:01;3.93;;;1.60;;
19810;SDS011;10065;49.632;8.346;2023-12-29T04:34:43;4.47;;;1.80;;
19810;SDS011;10065;49.632;8.346;2023-12-29T04:45:35;4.60;;;2.20;;
19810;SDS011;10065;49.632;8.346;2023-12-29T05:08:25;2.90;;;1.60;;
19810;SDS011;10065;49.632;8.346;2023-12-29T07:40:12;3.17;;;1.43;;
19810;SDS011;10065;49.632;8.346;2023-12-29T07:42:42;4.47;;;1.27;;
19810;SDS011;10065;49.632;8.346;2023-12-29T07:45:13;4.30;;;1.30;;
19810;SDS011;10065;49.632;8.346;2023-12-29T07:47:41;3.57;;;1.20;;
19810;SDS011;10065;49.632;8.346;2023-12-29T07:50:09;4.93;;;1.13;;
19810;SDS011;10065;49.632;8.346;2023-12-29T07:52:37;3.63;;;1.17;;
19810;SDS011;10065;49.632;8.346;2023-12-29T07:55:06;5.47;;;1.30;;
19810;SDS011;10065;49.632;8.346;2023-12-29T07:57:38;1.87;;;0.90;;
19810;SDS011;10065;49.632;8.346;2023-12-29T08:00:07;4.73;;;1.23;;
19810;SDS011;10065;49.632;8.346;2023-12-29T08:02:38;7.83;;;1.40;;
19810;SDS011;10065;49.632;8.346;2023-12-29T08:05:06;2.73;;;1.10;;
19810;SDS011;10065;49.632;8.346;2023-12-29T08:07:35;2.90;;;1.43;;
19810;SDS011;10065;49.632;8.346;2023-12-29T08:10:04;3.77;;;1.30;;
19810;SDS011;10065;49.632;8.346;2023-12-29T08:12:33;3.70;;;1.10;;
19810;SDS011;10065;49.632;8.346;2023-12-29T08:15:04;2.33;;;1.10;;
19810;SDS011;10065;49.632;8.346;2023-12-29T08:17:33;4.83;;;1.40;;
19810;SDS011;10065;49.632;8.346;2023-12-29T08:20:01;3.53;;;1.20;;
19810;SDS011;10065;49.632;8.346;2023-12-29T08:22:30;4.70;;;0.87;;
19810;SDS011;10065;49.632;8.346;2023-12-29T08:24:59;1.93;;;0.90;;
19810;SDS011;10065;49.632;8.346;2023-12-29T08:27:28;3.23;;;0.83;;
19810;SDS011;10065;49.632;8.346;2023-12-29T08:29:56;3.47;;;1.10;;
19810;SDS011;10065;49.632;8.346;2023-12-29T08:32:25;4.23;;;1.20;;
19810;SDS011;10065;49.632;8.346;2023-12-29T08:34:54;3.27;;;1.30;;
19810;SDS011;10065;49.632;8.346;2023-12-29T08:37:22;2.07;;;1.20;;
19810;SDS011;10065;49.632;8.346;2023-12-29T08:39:53;3.90;;;1.40;;
19810;SDS011;10065;49.632;8.346;2023-12-29T08:42:26;5.23;;;1.20;;
19810;SDS011;10065;49.632;8.346;2023-12-29T08:45:00;4.33;;;1.17;;
19810;SDS011;10065;49.632;8.346;2023-12-29T08:47:33;4.97;;;1.27;;
19810;SDS011;10065;49.632;8.346;2023-12-29T08:50:01;5.33;;;1.40;;
19810;SDS011;10065;49.632;8.346;2023-12-29T08:52:30;2.87;;;1.10;;
19810;SDS011;10065;49.632;8.346;2023-12-29T08:54:59;2.30;;;1.23;;
19810;SDS011;10065;49.632;8.346;2023-12-29T08:57:27;2.87;;;1.50;;
19810;SDS011;10065;49.632;8.346;2023-12-29T08:59:55;4.13;;;1.43;;
19810;SDS011;10065;49.632;8.346;2023-12-29T09:02:23;5.73;;;1.60;;
19810;SDS011;10065;49.632;8.346;2023-12-29T09:04:52;3.30;;;1.53;;
19810;SDS011;10065;49.632;8.346;2023-12-29T09:07:20;2.43;;;1.20;;
19810;SDS011;10065;49.632;8.346;2023-12-29T09:09:49;2.90;;;1.10;;
19810;SDS011;10065;49.632;8.346;2023-12-29T09:12:17;4.20;;;1.03;;
19810;SDS011;10065;49.632;8.346;2023-12-29T09:14:45;4.23;;;0.90;;
19810;SDS011;10065;49.632;8.346;2023-12-29T09:17:13;4.57;;;1.33;;
19810;SDS011;10065;49.632;8.346;2023-12-29T09:19:41;2.63;;;1.30;;
19810;SDS011;10065;49.632;8.346;2023-12-29T09:22:13;3.43;;;1.40;;
19810;SDS011;10065;49.632;8.346;2023-12-29T09:24:41;2.80;;;1.20;;
19810;SDS011;10065;49.632;8.346;2023-12-29T09:27:10;3.73;;;1.30;;
19810;SDS011;10065;49.632;8.346;2023-12-29T09:29:38;4.30;;;1.10;;
19810;SDS011;10065;49.632;8.346;2023-12-29T09:32:06;4.00;;;1.30;;
19810;SDS011;10065;49.632;8.346;2023-12-29T09:34:34;3.87;;;1.20;;
19810;SDS011;10065;49.632;8.346;2023-12-29T09:37:02;4.20;;;1.67;;
19810;SDS011;10065;49.632;8.346;2023-12-29T09:39:32;3.57;;;1.27;;
19810;SDS011;10065;49.632;8.346;2023-12-29T09:42:00;3.10;;;1.00;;
19810;SDS011;10065;49.632;8.346;2023-12-29T09:44:33;2.50;;;1.00;;
19810;SDS011;10065;49.632;8.346;2023-12-29T09:47:03;2.97;;;1.17;;
19810;SDS011;10065;49.632;8.346;2023-12-29T09:49:35;4.67;;;1.63;;
19810;SDS011;10065;49.632;8.346;2023-12-29T09:52:07;4.70;;;1.57;;
19810;SDS011;10065;49.632;8.346;2023-12-29T09:54:40;3.70;;;1.60;;
19810;SDS011;10065;49.632;8.346;2023-12-29T09:57:09;4.03;;;1.50;;
19810;SDS011;10065;49.632;8.346;2023-12-29T09:59:37;5.93;;;1.67;;
19810;SDS011;10065;49.632;8.346;2023-12-29T10:02:11;2.77;;;1.00;;
19810;SDS011;10065;49.632;8.346;2023-12-29T10:04:41;4.30;;;1.60;;
19810;SDS011;10065;49.632;8.346;2023-12-29T10:07:13;3.00;;;1.10;;
19810;SDS011;10065;49.632;8.346;2023-12-29T10:09:48;3.20;;;1.20;;
19810;SDS011;10065;49.632;8.346;2023-12-29T10:12:20;3.50;;;1.30;;
19810;SDS011;10065;49.632;8.346;2023-12-29T10:14:49;5.90;;;1.60;;
19810;SDS011;10065;49.632;8.346;2023-12-29T10:17:27;4.70;;;1.03;;
19810;SDS011;10065;49.632;8.346;2023-12-29T10:20:05;2.27;;;0.90;;
19810;SDS011;10065;49.632;8.346;2023-12-29T10:22:43;2.73;;;0.90;;
19810;SDS011;10065;49.632;8.346;2023-12-29T10:25:19;2.23;;;1.07;;
19810;SDS011;10065;49.632;8.346;2023-12-29T10:27:50;3.27;;;1.10;;
19810;SDS011;10065;49.632;8.346;2023-12-29T10:30:19;4.00;;;1.00;;
19810;SDS011;10065;49.632;8.346;2023-12-29T10:32:59;2.37;;;1.00;;
19810;SDS011;10065;49.632;8.346;2023-12-29T10:35:30;3.03;;;0.83;;
19810;SDS011;10065;49.632;8.346;2023-12-29T10:38:08;2.43;;;0.87;;
19810;SDS011;10065;49.632;8.346;2023-12-29T10:40:39;3.03;;;1.03;;
19810;SDS011;10065;49.632;8.346;2023-12-29T10:43:16;4.73;;;0.90;;
19810;SDS011;10065;49.632;8.346;2023-12-29T10:45:51;4.87;;;1.03;;
19810;SDS011;10065;49.632;8.346;2023-12-29T10:48:34;3.90;;;0.80;;
19810;SDS011;10065;49.632;8.346;2023-12-29T10:51:03;3.33;;;0.80;;
19810;SDS011;10065;49.632;8.346;2023-12-29T10:53:32;4.50;;;1.57;;
19810;SDS011;10065;49.632;8.346;2023-12-29T10:56:11;2.80;;;0.80;;
19810;SDS011;10065;49.632;8.346;2023-12-29T10:58:50;3.60;;;1.17;;
19810;SDS011;10065;49.632;8.346;2023-12-29T11:01:28;3.20;;;0.97;;
19810;SDS011;10065;49.632;8.346;2023-12-29T11:04:00;4.13;;;0.90;;
19810;SDS011;10065;49.632;8.346;2023-12-29T11:06:39;4.80;;;1.20;;
19810;SDS011;10065;49.632;8.346;2023-12-29T11:09:08;3.80;;;1.00;;
19810;SDS011;10065;49.632;8.346;2023-12-29T11:11:39;3.30;;;1.10;;
19810;SDS011;10065;49.632;8.346;2023-12-29T11:14:09;2.70;;;0.70;;
19810;SDS011;10065;49.632;8.346;2023-12-29T11:16:39;2.47;;;0.90;;
19810;SDS011;10065;49.632;8.346;2023-12-29T11:19:09;2.30;;;1.10;;
19810;SDS011;10065;49.632;8.346;2023-12-29T11:21:39;5.43;;;1.30;;
19810;SDS011;10065;49.632;8.346;2023-12-29T11:24:09;3.07;;;1.17;;
19810;SDS011;10065;49.632;8.346;2023-12-29T11:26:41;4.80;;;1.33;;
19810;SDS011;10065;49.632;8.346;2023-12-29T11:29:14;3.27;;;1.37;;
19810;SDS011;10065;49.632;8.346;2023-12-29T11:31:43;8.60;;;1.10;;
19810;SDS011;10065;49.632;8.346;2023-12-29T11:34:16;2.93;;;0.80;;
19810;SDS011;10065;49.632;8.346;2023-12-29T11:36:48;1.97;;;1.00;;
19810;SDS011;10065;49.632;8.346;2023-12-29T11:39:27;1.60;;;0.80;;
19810;SDS011;10065;49.632;8.346;2023-12-29T11:42:11;3.53;;;0.80;;
19810;SDS011;10065;49.632;8.346;2023-12-29T11:44:45;2.27;;;0.87;;
19810;SDS011;10065;49.632;8.346;2023-12-29T11:50:05;3.27;;;1.30;;
19810;SDS011;10065;49.632;8.346;2023-12-29T11:52:37;3.83;;;0.80;;
19810;SDS011;10065;49.632;8.346;2023-12-29T11:55:07;2.97;;;1.00;;
19810;SDS011;10065;49.632;8.346;2023-12-29T11:57:38;3.83;;;0.83;;
19810;SDS011;10065;49.632;8.346;2023-12-29T12:00:08;3.20;;;0.90;;
19810;SDS011;10065;49.632;8.346;2023-12-29T12:02:38;2.40;;;0.70;;
19810;SDS011;10065;49.632;8.346;2023-12-29T12:05:09;2.37;;;0.90;;
19810;SDS011;10065;49.632;8.346;2023-12-29T12:07:58;2.80;;;0.83;;
19810;SDS011;10065;49.632;8.346;2023-12-29T12:10:32;3.07;;;0.80;;
19810;SDS011;10065;49.632;8.346;2023-12-29T12:13:06;2.77;;;0.87;;
19810;SDS011;10065;49.632;8.346;2023-12-29T12:15:38;4.37;;;0.93;;
19810;SDS011;10065;49.632;8.346;2023-12-29T12:18:10;2.87;;;0.90;;
19810;SDS011;10065;49.632;8.346;2023-12-29T12:20:39;4.23;;;1.00;;
19810;SDS011;10065;49.632;8.346;2023-12-29T12:23:11;4.77;;;1.30;;
19810;SDS011;10065;49.632;8.346;2023-12-29T12:25:44;5.63;;;1.47;;
19810;SDS011;10065;49.632;8.346;2023-12-29T12:28:15;4.30;;;1.17;;
19810;SDS011;10065;49.632;8.346;2023-12-29T12:30:44;2.43;;;0.80;;
19810;SDS011;10065;49.632;8.346;2023-12-29T12:33:12;2.20;;;0.93;;
19810;SDS011;10065;49.632;8.346;2023-12-29T12:35:41;5.17;;;1.00;;
19810;SDS011;10065;49.632;8.346;2023-12-29T12:38:11;3.83;;;1.00;;
19810;SDS011;10065;49.632;8.346;2023-12-29T12:40:40;4.43;;;1.10;;
19810;SDS011;10065;49.632;8.346;2023-12-29T12:43:11;2.10;;;0.87;;
19810;SDS011;10065;49.632;8.346;2023-12-29T12:45:46;2.57;;;1.10;;
19810;SDS011;10065;49.632;8.346;2023-12-29T12:48:19;2.43;;;0.90;;
19810;SDS011;10065;49.632;8.346;2023-12-29T12:50:50;3.27;;;0.70;;
19810;SDS011;10065;49.632;8.346;2023-12-29T12:53:21;1.87;;;0.80;;
19810;SDS011;10065;49.632;8.346;2023-12-29T12:55:52;5.40;;;1.10;;
19810;SDS011;10065;49.632;8.346;2023-12-29T12:58:21;2.93;;;1.00;;
19810;SDS011;10065;49.632;8.346;2023-12-29T13:00:51;4.57;;;0.93;;
19810;SDS011;10065;49.632;8.346;2023-12-29T13:03:22;1.90;;;0.70;;
19810;SDS011;10065;49.632;8.346;2023-12-29T13:05:51;3.60;;;1.20;;
19810;SDS011;10065;49.632;8.346;2023-12-29T13:08:20;4.07;;;0.97;;
19810;SDS011;10065;49.632;8.346;2023-12-29T13:11:00;3.27;;;0.97;;
19810;SDS011;10065;49.632;8.346;2023-12-29T13:13:35;2.63;;;0.90;;
19810;SDS011;10065;49.632;8.346;2023-12-29T13:16:06;2.17;;;0.90;;
19810;SDS011;10065;49.632;8.346;2023-12-29T13:18:35;3.03;;;0.73;;
19810;SDS011;10065;49.632;8.346;2023-12-29T13:21:03;1.97;;;0.80;;
19810;SDS011;10065;49.632;8.346;2023-12-29T13:23:33;1.33;;;0.60;;
19810;SDS011;10065;49.632;8.346;2023-12-29T13:26:04;3.43;;;0.90;;
19810;SDS011;10065;49.632;8.346;2023-12-29T13:28:35;2.90;;;1.10;;
19810;SDS011;10065;49.632;8.346;2023-12-29T13:31:07;2.60;;;1.07;;
19810;SDS011;10065;49.632;8.346;2023-12-29T13:33:43;4.17;;;1.03;;
19810;SDS011;10065;49.632;8.346;2023-12-29T13:36:21;2.27;;;1.00;;
19810;SDS011;10065;49.632;8.346;2023-12-29T13:38:55;2.17;;;0.87;;
19810;SDS011;10065;49.632;8.346;2023-12-29T13:41:33;2.07;;;0.80;;
19810;SDS011;10065;49.632;8.346;2023-12-29T13:44:01;2.80;;;1.33;;
19810;SDS011;10065;49.632;8.346;2023-12-29T13:46:35;2.60;;;1.20;;
19810;SDS011;10065;49.632;8.346;2023-12-29T13:49:05;3.93;;;0.90;;
19810;SDS011;10065;49.632;8.346;2023-12-29T13:51:42;2.80;;;1.07;;
19810;SDS011;10065;49.632;8.346;2023-12-29T13:54:12;2.87;;;1.47;;
19810;SDS011;10065;49.632;8.346;2023-12-29T13:56:50;2.37;;;1.10;;
19810;SDS011;10065;49.632;8.346;2023-12-29T13:59:28;3.53;;;1.00;;
19810;SDS011;10065;49.632;8.346;2023-12-29T14:02:02;2.37;;;1.30;;
19810;SDS011;10065;49.632;8.346;2023-12-29T14:04:43;3.60;;;0.93;;
19810;SDS011;10065;49.632;8.346;2023-12-29T14:07:12;2.57;;;0.80;;
19810;SDS011;10065;49.632;8.346;2023-12-29T14:09:45;2.77;;;0.90;;
19810;SDS011;10065;49.632;8.346;2023-12-29T14:12:13;2.20;;;0.90;;
19810;SDS011;10065;49.632;8.346;2023-12-29T14:14:52;3.53;;;1.37;;
19810;SDS011;10065;49.632;8.346;2023-12-29T14:17:22;1.27;;;0.77;;
19810;SDS011;10065;49.632;8.346;2023-12-29T14:19:51;3.73;;;1.00;;
19810;SDS011;10065;49.632;8.346;2023-12-29T14:22:21;2.80;;;0.90;;
19810;SDS011;10065;49.632;8.346;2023-12-29T14:24:58;2.60;;;1.20;;
19810;SDS011;10065;49.632;8.346;2023-12-29T14:27:32;3.53;;;1.00;;
19810;SDS011;10065;49.632;8.346;2023-12-29T14:30:18;3.03;;;0.83;;
19810;SDS011;10065;49.632;8.346;2023-12-29T14:32:48;1.33;;;0.80;;
19810;SDS011;10065;49.632;8.346;2023-12-29T14:35:20;3.77;;;1.07;;
19810;SDS011;10065;49.632;8.346;2023-12-29T14:37:49;3.87;;;1.20;;
19810;SDS011;10065;49.632;8.346;2023-12-29T14:40:18;4.00;;;0.93;;
19810;SDS011;10065;49.632;8.346;2023-12-29T14:42:49;2.10;;;0.70;;
19810;SDS011;10065;49.632;8.346;2023-12-29T14:45:18;1.37;;;0.70;;
19810;SDS011;10065;49.632;8.346;2023-12-29T14:47:51;1.53;;;0.60;;
19810;SDS011;10065;49.632;8.346;2023-12-29T14:50:19;1.93;;;0.60;;
19810;SDS011;10065;49.632;8.346;2023-12-29T14:52:48;2.20;;;0.67;;
19810;SDS011;10065;49.632;8.346;2023-12-29T14:55:16;1.90;;;0.60;;
19810;SDS011;10065;49.632;8.346;2023-12-29T14:57:44;2.30;;;0.70;;
19810;SDS011;10065;49.632;8.346;2023-12-29T15:00:13;2.23;;;0.83;;
19810;SDS011;10065;49.632;8.346;2023-12-29T15:02:42;2.73;;;0.90;;
19810;SDS011;10065;49.632;8.346;2023-12-29T15:05:12;1.60;;;0.83;;
19810;SDS011;10065;49.632;8.346;2023-12-29T15:07:40;1.57;;;0.80;;
19810;SDS011;10065;49.632;8.346;2023-12-29T15:10:08;1.60;;;0.70;;
19810;SDS011;10065;49.632;8.346;2023-12-29T15:12:37;1.63;;;0.70;;
19810;SDS011;10065;49.632;8.346;2023-12-29T15:15:07;2.23;;;0.70;;
19810;SDS011;10065;49.632;8.346;2023-12-29T15:17:37;3.83;;;0.80;;
19810;SDS011;10065;49.632;8.346;2023-12-29T15:20:06;1.27;;;0.73;;
19810;SDS011;10065;49.632;8.346;2023-12-29T15:22:37;2.73;;;0.87;;
19810;SDS011;10065;49.632;8.346;2023-12-29T15:25:09;4.00;;;0.80;;
19810;SDS011;10065;49.632;8.346;2023-12-29T15:27:38;2.63;;;0.70;;
19810;SDS011;10065;49.632;8.346;2023-12-29T15:30:07;5.57;;;1.10;;
19810;SDS011;10065;49.632;8.346;2023-12-29T15:32:38;1.70;;;0.77;;
19810;SDS011;10065;49.632;8.346;2023-12-29T15:35:06;1.70;;;0.60;;
19810;SDS011;10065;49.632;8.346;2023-12-29T15:37:35;3.13;;;0.80;;
19810;SDS011;10065;49.632;8.346;2023-12-29T15:40:14;4.30;;;1.10;;
19810;SDS011;10065;49.632;8.346;2023-12-29T15:42:42;4.93;;;0.90;;
19810;SDS011;10065;49.632;8.346;2023-12-29T15:45:10;3.97;;;1.10;;
19810;SDS011;10065;49.632;8.346;2023-12-29T15:47:39;3.13;;;0.80;;
19810;SDS011;10065;49.632;8.346;2023-12-29T15:50:08;2.17;;;0.73;;
19810;SDS011;10065;49.632;8.346;2023-12-29T15:52:37;3.93;;;1.07;;
19810;SDS011;10065;49.632;8.346;2023-12-29T15:55:06;3.30;;;1.33;;
19810;SDS011;10065;49.632;8.346;2023-12-29T15:57:37;2.83;;;0.80;;
19810;SDS011;10065;49.632;8.346;2023-12-29T16:00:08;4.33;;;1.17;;
19810;SDS011;10065;49.632;8.346;2023-12-29T16:02:40;3.60;;;0.70;;
19810;SDS011;10065;49.632;8.346;2023-12-29T16:05:08;3.73;;;0.90;;
19810;SDS011;10065;49.632;8.346;2023-12-29T16:07:37;4.67;;;1.10;;
19810;SDS011;10065;49.632;8.346;2023-12-29T16:10:06;4.13;;;0.87;;
19810;SDS011;10065;49.632;8.346;2023-12-29T16:12:37;4.87;;;1.03;;
19810;SDS011;10065;49.632;8.346;2023-12-29T16:15:07;6.47;;;0.93;;
19810;SDS011;10065;49.632;8.346;2023-12-29T16:17:36;3.33;;;0.80;;
19810;SDS011;10065;49.632;8.346;2023-12-29T16:20:05;1.63;;;0.70;;
19810;SDS011;10065;49.632;8.346;2023-12-29T16:22:35;5.23;;;1.20;;
19810;SDS011;10065;49.632;8.346;2023-12-29T16:25:04;2.00;;;0.93;;
19810;SDS011;10065;49.632;8.346;2023-12-29T16:27:33;3.40;;;1.20;;
19810;SDS011;10065;49.632;8.346;2023-12-29T16:30:03;3.53;;;1.47;;
19810;SDS011;10065;49.632;8.346;2023-12-29T16:32:33;4.90;;;1.20;;
19810;SDS011;10065;49.632;8.346;2023-12-29T16:35:03;5.03;;;1.00;;
19810;SDS011;10065;49.632;8.346;2023-12-29T16:37:35;3.43;;;0.90;;
19810;SDS011;10065;49.632;8.346;2023-12-29T16:40:06;5.40;;;1.00;;
19810;SDS011;10065;49.632;8.346;2023-12-29T16:42:40;7.73;;;1.40;;
19810;SDS011;10065;49.632;8.346;2023-12-29T16:45:14;3.27;;;1.10;;
19810;SDS011;10065;49.632;8.346;2023-12-29T16:47:47;3.97;;;1.37;;
19810;SDS011;10065;49.632;8.346;2023-12-29T16:50:18;5.60;;;1.10;;
19810;SDS011;10065;49.632;8.346;2023-12-29T16:52:47;3.73;;;1.20;;
19810;SDS011;10065;49.632;8.346;2023-12-29T16:55:17;4.00;;;1.07;;
19810;SDS011;10065;49.632;8.346;2023-12-29T16:57:46;1.90;;;0.73;;
19810;SDS011;10065;49.632;8.346;2023-12-29T17:00:16;4.37;;;1.10;;
19810;SDS011;10065;49.632;8.346;2023-12-29T17:02:46;2.73;;;0.80;;
19810;SDS011;10065;49.632;8.346;2023-12-29T17:05:19;3.93;;;1.00;;
19810;SDS011;10065;49.632;8.346;2023-12-29T17:07:50;3.67;;;0.97;;
19810;SDS011;10065;49.632;8.346;2023-12-29T17:10:18;3.10;;;0.80;;
19810;SDS011;10065;49.632;8.346;2023-12-29T17:12:47;3.83;;;1.10;;
19810;SDS011;10065;49.632;8.346;2023-12-29T17:15:29;3.93;;;0.93;;
19810;SDS011;10065;49.632;8.346;2023-12-29T17:17:57;3.20;;;1.30;;
19810;SDS011;10065;49.632;8.346;2023-12-29T17:20:25;4.67;;;1.10;;
19810;SDS011;10065;49.632;8.346;2023-12-29T17:22:54;4.70;;;1.10;;
19810;SDS011;10065;49.632;8.346;2023-12-29T17:25:22;4.63;;;1.00;;
19810;SDS011;10065;49.632;8.346;2023-12-29T17:27:54;3.33;;;1.30;;
19810;SDS011;10065;49.632;8.346;2023-12-29T17:30:26;4.27;;;1.17;;
19810;SDS011;10065;49.632;8.346;2023-12-29T17:32:55;5.33;;;1.23;;
19810;SDS011;10065;49.632;8.346;2023-12-29T17:35:24;3.30;;;1.30;;
19810;SDS011;10065;49.632;8.346;2023-12-29T17:37:52;6.80;;;1.30;;
19810;SDS011;10065;49.632;8.346;2023-12-29T17:40:20;3.40;;;1.30;;
19810;SDS011;10065;49.632;8.346;2023-12-29T17:42:48;2.33;;;1.10;;
19810;SDS011;10065;49.632;8.346;2023-12-29T17:45:16;3.30;;;1.50;;
19810;SDS011;10065;49.632;8.346;2023-12-29T17:47:44;3.93;;;1.23;;
19810;SDS011;10065;49.632;8.346;2023-12-29T17:50:14;5.87;;;1.20;;
19810;SDS011;10065;49.632;8.346;2023-12-29T17:52:44;7.27;;;1.40;;
19810;SDS011;10065;49.632;8.346;2023-12-29T17:55:12;7.60;;;1.80;;
19810;SDS011;10065;49.632;8.346;2023-12-29T17:57:41;4.47;;;1.60;;
19810;SDS011;10065;49.632;8.346;2023-12-29T18:00:09;5.83;;;1.90;;
19810;SDS011;10065;49.632;8.346;2023-12-29T18:02:38;4.20;;;1.73;;
19810;SDS011;10065;49.632;8.346;2023-12-29T18:05:07;3.33;;;1.67;;
19810;SDS011;10065;49.632;8.346;2023-12-29T18:07:36;3.40;;;1.37;;
19810;SDS011;10065;49.632;8.346;2023-12-29T18:10:06;5.27;;;1.47;;
19810;SDS011;10065;49.632;8.346;2023-12-29T18:12:35;2.70;;;1.20;;
19810;SDS011;10065;49.632;8.346;2023-12-29T18:15:04;4.10;;;1.70;;
19810;SDS011;10065;49.632;8.346;2023-12-29T18:17:33;3.67;;;1.23;;
19810;SDS011;10065;49.632;8.346;2023-12-29T18:20:04;3.53;;;1.20;;
19810;SDS011;10065;49.632;8.346;2023-12-29T18:22:33;4.57;;;1.33;;
19810;SDS011;10065;49.632;8.346;2023-12-29T18:25:04;2.30;;;0.97;;
19810;SDS011;10065;49.632;8.346;2023-12-29T18:27:33;5.37;;;1.30;;
19810;SDS011;10065;49.632;8.346;2023-12-29T18:30:02;4.50;;;1.37;;
19810;SDS011;10065;49.632;8.346;2023-12-29T18:32:30;4.40;;;1.23;;
19810;SDS011;10065;49.632;8.346;2023-12-29T18:34:59;5.10;;;1.87;;
19810;SDS011;10065;49.632;8.346;2023-12-29T18:37:30;3.43;;;1.10;;
19810;SDS011;10065;49.632;8.346;2023-12-29T18:39:58;5.23;;;1.27;;
19810;SDS011;10065;49.632;8.346;2023-12-29T18:42:28;5.80;;;1.40;;
19810;SDS011;10065;49.632;8.346;2023-12-29T18:44:56;4.17;;;1.40;;
19810;SDS011;10065;49.632;8.346;2023-12-29T18:47:25;2.87;;;1.00;;
19810;SDS011;10065;49.632;8.346;2023-12-29T18:49:56;3.17;;;1.27;;
19810;SDS011;10065;49.632;8.346;2023-12-29T18:52:25;4.73;;;1.40;;
19810;SDS011;10065;49.632;8.346;2023-12-29T18:54:53;3.57;;;1.20;;
19810;SDS011;10065;49.632;8.346;2023-12-29T18:57:21;3.03;;;1.43;;
19810;SDS011;10065;49.632;8.346;2023-12-29T18:59:51;3.27;;;1.17;;
19810;SDS011;10065;49.632;8.346;2023-12-29T19:02:23;2.80;;;1.30;;
19810;SDS011;10065;49.632;8.346;2023-12-29T19:04:51;2.90;;;1.10;;
19810;SDS011;10065;49.632;8.346;2023-12-29T19:07:26;3.50;;;1.23;;
19810;SDS011;10065;49.632;8.346;2023-12-29T19:10:18;4.60;;;1.20;;
19810;SDS011;10065;49.632;8.346;2023-12-29T19:12:46;4.57;;;1.50;;
19810;SDS011;10065;49.632;8.346;2023-12-29T19:15:16;6.33;;;2.10;;
19810;SDS011;10065;49.632;8.346;2023-12-29T19:17:45;3.53;;;1.23;;
19810;SDS011;10065;49.632;8.346;2023-12-29T19:20:13;6.80;;;1.40;;
19810;SDS011;10065;49.632;8.346;2023-12-29T19:22:44;6.47;;;1.10;;
19810;SDS011;10065;49.632;8.346;2023-12-29T19:25:42;3.97;;;1.47;;
